Time;durP1;ratioP1;P1;durP2;ratioP2;P2;SDS_P1;SDS_P2;PMS_P1;PMS_P2;Temp;Humidity;BMP_temperature;BMP_pressure;BME280_temperature;BME280_humidity;BME280_pressure;Samples;Min_cycle;Max_cycle;Signal;HPM_P1;HPM_P2
2021/07/10 00:01:38;;;;;;;3.97;3.77;;;16.00;99.90;;;;;;5018277;28;20196;-75
2021/07/10 00:04:06;;;;;;;4.30;3.60;;;16.00;99.90;;;;;;5018294;28;20179;-77
2021/07/10 00:06:32;;;;;;;4.00;3.50;;;16.00;99.90;;;;;;5000998;28;20262;-77
2021/07/10 00:08:58;;;;;;;3.93;3.50;;;15.90;99.90;;;;;;5018527;28;20183;-77
2021/07/10 00:11:24;;;;;;;4.70;4.30;;;15.90;99.90;;;;;;5019263;28;20540;-77
2021/07/10 00:13:49;;;;;;;5.20;4.00;;;15.90;99.90;;;;;;5018946;28;20199;-77
2021/07/10 00:16:24;;;;;;;4.50;4.00;;;15.80;99.90;;;;;;5018548;28;20267;-74
2021/07/10 00:18:50;;;;;;;4.27;3.93;;;15.90;99.90;;;;;;5000750;28;20700;-77
2021/07/10 00:21:15;;;;;;;4.83;4.23;;;15.90;99.90;;;;;;5012600;28;20194;-77
2021/07/10 00:23:41;;;;;;;4.03;3.73;;;15.70;99.90;;;;;;5019165;28;20215;-77
2021/07/10 00:26:06;;;;;;;4.10;3.80;;;15.80;99.90;;;;;;5017481;28;20277;-77
2021/07/10 00:28:38;;;;;;;4.83;3.80;;;15.70;99.90;;;;;;5017851;28;20553;-74
2021/07/10 00:31:04;;;;;;;4.23;3.90;;;15.70;99.90;;;;;;5001046;28;20574;-77
2021/07/10 00:33:29;;;;;;;6.10;4.20;;;15.60;99.90;;;;;;5017666;28;20266;-77
2021/07/10 00:35:55;;;;;;;5.23;4.40;;;15.70;99.90;;;;;;5000550;28;20252;-77
2021/07/10 00:38:41;;;;;;;4.67;4.17;;;15.70;99.90;;;;;;5018272;28;20642;-75
2021/07/10 00:41:07;;;;;;;4.27;3.80;;;15.70;99.90;;;;;;5018017;28;20211;-77
2021/07/10 00:43:33;;;;;;;4.50;4.17;;;15.70;99.90;;;;;;5081998;22;20304;-78
2021/07/10 00:45:59;;;;;;;5.00;4.23;;;15.70;99.90;;;;;;5056973;28;20173;-80
2021/07/10 00:48:24;;;;;;;4.40;4.10;;;15.70;99.90;;;;;;5054061;28;20175;-81
2021/07/10 00:50:50;;;;;;;6.33;4.23;;;15.70;99.90;;;;;;5059805;28;20169;-79
2021/07/10 00:53:15;;;;;;;5.17;4.43;;;15.70;99.90;;;;;;5056035;28;20212;-79
2021/07/10 00:55:42;;;;;;;5.47;4.63;;;15.70;99.90;;;;;;5056438;28;20264;-80
2021/07/10 00:58:10;;;;;;;7.07;4.10;;;15.70;99.90;;;;;;5054768;28;20262;-80
2021/07/10 01:00:35;;;;;;;5.67;4.13;;;15.70;99.90;;;;;;5056140;28;20283;-81
2021/07/10 01:03:02;;;;;;;4.93;4.17;;;15.60;99.90;;;;;;5057222;28;20626;-80
2021/07/10 01:05:31;;;;;;;4.83;4.43;;;15.60;99.90;;;;;;5038059;28;20170;-79
2021/07/10 01:07:57;;;;;;;6.47;4.53;;;15.70;99.90;;;;;;5056491;28;20216;-80
2021/07/10 01:10:24;;;;;;;6.47;5.13;;;15.70;99.90;;;;;;5057405;28;20177;-81
2021/07/10 01:12:52;;;;;;;5.00;4.60;;;15.60;99.90;;;;;;5054729;28;20198;-80
2021/07/10 01:15:20;;;;;;;6.00;4.40;;;15.60;99.90;;;;;;5050693;28;20589;-80
2021/07/10 01:17:46;;;;;;;4.60;4.30;;;15.60;99.90;;;;;;5055414;28;20177;-80
2021/07/10 01:20:15;;;;;;;4.97;4.50;;;15.60;99.90;;;;;;5055648;28;20198;-80
2021/07/10 01:22:42;;;;;;;5.60;5.13;;;15.60;99.90;;;;;;5055002;28;20198;-80
2021/07/10 01:25:11;;;;;;;4.80;4.40;;;15.60;99.90;;;;;;5037832;28;20563;-80
2021/07/10 01:27:37;;;;;;;5.40;4.90;;;15.60;99.90;;;;;;5036140;28;20553;-80
2021/07/10 01:30:07;;;;;;;4.97;4.50;;;15.60;99.90;;;;;;5040729;28;20271;-79
2021/07/10 01:32:33;;;;;;;5.07;4.50;;;15.50;99.90;;;;;;5058127;28;20209;-80
2021/07/10 01:34:59;;;;;;;5.17;4.77;;;15.50;99.90;;;;;;5057056;28;20606;-79
2021/07/10 01:37:24;;;;;;;6.80;4.60;;;15.50;99.90;;;;;;5058085;28;20192;-80
2021/07/10 01:39:50;;;;;;;7.07;5.10;;;15.40;99.90;;;;;;5057528;28;20295;-80
2021/07/10 01:42:16;;;;;;;4.53;4.10;;;15.40;99.90;;;;;;5055062;28;20231;-81
2021/07/10 01:44:42;;;;;;;5.00;4.60;;;15.40;99.90;;;;;;5074891;28;20172;-79
2021/07/10 01:47:08;;;;;;;4.60;4.30;;;15.40;99.90;;;;;;5055808;28;20173;-80
2021/07/10 01:49:34;;;;;;;5.40;4.90;;;15.40;99.90;;;;;;5074482;28;20185;-80
2021/07/10 01:51:59;;;;;;;5.30;4.90;;;15.30;99.90;;;;;;5055951;28;20173;-79
2021/07/10 01:54:25;;;;;;;5.00;4.60;;;15.30;99.90;;;;;;5053562;28;20286;-81
2021/07/10 01:56:52;;;;;;;5.93;4.97;;;15.30;99.90;;;;;;5062710;28;20185;-80
2021/07/10 01:59:18;;;;;;;5.20;4.80;;;15.20;99.90;;;;;;5068771;28;20177;-80
2021/07/10 02:01:51;;;;;;;5.47;5.07;;;15.20;99.90;;;;;;5053371;28;20184;-81
2021/07/10 02:04:22;;;;;;;5.23;4.73;;;15.20;99.90;;;;;;5072717;28;20644;-80
2021/07/10 02:06:48;;;;;;;6.70;4.87;;;15.10;99.90;;;;;;5055572;28;20173;-80
2021/07/10 02:09:15;;;;;;;5.47;5.07;;;15.10;99.90;;;;;;5073769;28;20174;-80
2021/07/10 02:11:50;;;;;;;6.40;5.23;;;15.10;99.90;;;;;;5055443;28;20260;-81
2021/07/10 02:14:18;;;;;;;4.80;4.50;;;15.10;99.90;;;;;;5057281;28;20172;-79
2021/07/10 02:16:45;;;;;;;5.77;5.37;;;15.10;99.90;;;;;;5065498;28;20176;-81
2021/07/10 02:19:11;;;;;;;6.03;5.53;;;15.10;99.90;;;;;;5072902;28;20538;-79
2021/07/10 02:21:38;;;;;;;4.87;4.47;;;15.10;99.90;;;;;;5073166;28;20165;-80
2021/07/10 02:24:05;;;;;;;8.97;5.70;;;15.10;99.90;;;;;;5055780;28;20610;-79
2021/07/10 02:26:31;;;;;;;5.93;5.37;;;15.10;99.90;;;;;;5056010;28;20529;-80
2021/07/10 02:28:56;;;;;;;6.03;5.50;;;15.10;99.90;;;;;;5073334;28;20172;-80
2021/07/10 02:31:22;;;;;;;5.70;5.20;;;15.10;99.90;;;;;;5073027;28;20177;-81
2021/07/10 02:33:48;;;;;;;5.87;5.30;;;15.10;99.90;;;;;;5055287;28;20216;-80
2021/07/10 02:36:13;;;;;;;6.10;5.50;;;15.10;99.90;;;;;;5055155;28;20261;-80
2021/07/10 02:38:39;;;;;;;6.07;5.47;;;15.00;99.90;;;;;;5072554;28;20260;-80
2021/07/10 02:41:05;;;;;;;5.73;5.03;;;15.00;99.90;;;;;;5054734;28;20243;-81
2021/07/10 02:43:30;;;;;;;5.70;5.20;;;15.00;99.90;;;;;;5072561;28;20219;-80
2021/07/10 02:45:56;;;;;;;5.93;5.47;;;14.90;99.90;;;;;;5072713;28;20703;-81
2021/07/10 02:48:22;;;;;;;6.10;5.50;;;14.80;99.90;;;;;;5051020;28;20186;-80
2021/07/10 02:50:48;;;;;;;6.10;5.50;;;14.80;99.90;;;;;;5058057;28;20184;-80
2021/07/10 02:53:13;;;;;;;6.10;5.53;;;14.70;99.90;;;;;;5035561;28;20206;-80
2021/07/10 02:55:39;;;;;;;6.40;5.80;;;14.70;99.90;;;;;;5054643;28;20887;-78
2021/07/10 02:58:05;;;;;;;6.23;5.40;;;14.50;99.90;;;;;;5052879;28;20204;-81
2021/07/10 03:00:31;;;;;;;7.70;5.80;;;14.60;99.90;;;;;;5052576;28;20198;-81
2021/07/10 03:02:59;;;;;;;6.83;6.20;;;;;;;;;;5054470;28;20192;-79
2021/07/10 03:05:24;;;;;;;6.47;5.97;;;14.60;99.90;;;;;;5054270;28;20696;-80
2021/07/10 03:07:50;;;;;;;8.37;6.47;;;14.50;99.90;;;;;;5039382;28;20199;-79
2021/07/10 03:10:22;;;;;;;7.07;6.37;;;14.50;99.90;;;;;;5057815;28;20209;-80
2021/07/10 03:12:48;;;;;;;6.77;6.13;;;14.50;99.90;;;;;;5053836;28;20201;-79
2021/07/10 03:15:16;;;;;;;11.03;6.60;;;14.60;99.90;;;;;;5051855;28;20261;-80
2021/07/10 03:17:43;;;;;;;7.60;6.87;;;14.60;99.90;;;;;;5052034;28;20603;-80
2021/07/10 03:20:09;;;;;;;7.63;6.73;;;14.60;99.90;;;;;;5059642;28;20203;-80
2021/07/10 03:22:35;;;;;;;9.30;6.80;;;14.60;99.90;;;;;;5073029;28;20287;-81
2021/07/10 03:25:05;;;;;;;7.93;7.07;;;14.50;99.90;;;;;;5055232;28;20456;-80
2021/07/10 03:27:31;;;;;;;8.17;7.47;;;14.50;99.90;;;;;;5074116;28;20637;-79
2021/07/10 03:29:57;;;;;;;7.80;7.10;;;14.50;99.90;;;;;;5077156;28;20173;-81
2021/07/10 03:32:23;;;;;;;8.53;7.63;;;14.50;99.90;;;;;;5060263;28;20679;-80
2021/07/10 03:34:48;;;;;;;8.20;7.37;;;14.40;99.90;;;;;;5077168;28;20212;-80
2021/07/10 03:37:14;;;;;;;8.73;7.93;;;14.40;99.90;;;;;;5076665;28;20200;-80
2021/07/10 03:39:41;;;;;;;12.03;7.97;;;14.30;99.90;;;;;;5076975;28;20211;-80
2021/07/10 03:42:06;;;;;;;8.17;7.47;;;14.30;99.90;;;;;;5058706;28;20172;-79
2021/07/10 03:44:32;;;;;;;8.47;7.70;;;14.30;99.90;;;;;;5058857;28;20728;-81
2021/07/10 03:46:58;;;;;;;7.93;7.13;;;14.10;99.90;;;;;;5058213;28;20177;-79
2021/07/10 03:49:24;;;;;;;7.60;7.00;;;14.10;99.90;;;;;;5075409;28;20267;-80
2021/07/10 03:51:49;;;;;;;9.17;7.80;;;14.10;99.90;;;;;;5076486;28;20250;-80
2021/07/10 03:54:15;;;;;;;8.70;7.90;;;14.10;99.90;;;;;;5057580;28;20569;-79
2021/07/10 03:56:41;;;;;;;7.97;7.27;;;14.20;99.90;;;;;;5075784;28;20233;-80
2021/07/10 03:59:06;;;;;;;12.80;7.77;;;14.10;99.90;;;;;;5057041;28;20188;-79
2021/07/10 04:01:33;;;;;;;8.53;7.83;;;14.20;99.90;;;;;;5069246;28;20199;-80
2021/07/10 04:04:00;;;;;;;8.60;7.80;;;14.20;99.90;;;;;;5068589;28;20701;-80
2021/07/10 04:06:25;;;;;;;9.17;8.27;;;14.30;99.90;;;;;;5063471;28;20180;-81
2021/07/10 04:08:52;;;;;;;8.87;8.17;;;14.30;99.90;;;;;;5071190;28;20169;-79
2021/07/10 04:11:18;;;;;;;8.87;8.07;;;14.20;99.90;;;;;;5072811;28;20172;-78
2021/07/10 04:13:43;;;;;;;8.47;7.77;;;14.30;99.90;;;;;;5075396;28;20287;-80
2021/07/10 04:16:09;;;;;;;9.20;8.30;;;14.30;99.90;;;;;;5067547;28;20178;-80
2021/07/10 04:18:36;;;;;;;8.27;7.47;;;14.20;99.90;;;;;;5075881;28;20181;-79
2021/07/10 04:21:02;;;;;;;8.87;7.40;;;14.30;99.90;;;;;;5056925;28;20201;-80
2021/07/10 04:23:28;;;;;;;8.67;7.97;;;14.30;99.90;;;;;;5075973;28;20292;-81
2021/07/10 04:25:53;;;;;;;8.53;7.67;;;14.20;99.90;;;;;;5048804;28;20319;-80
2021/07/10 04:28:19;;;;;;;8.87;8.17;;;14.20;99.90;;;;;;5058454;28;20219;-80
2021/07/10 04:30:45;;;;;;;9.83;8.03;;;14.30;99.90;;;;;;5055217;28;20181;-80
2021/07/10 04:33:10;;;;;;;8.23;7.47;;;14.30;99.90;;;;;;5057117;28;20208;-80
2021/07/10 04:35:36;;;;;;;11.73;7.90;;;14.30;99.90;;;;;;5038103;28;20192;-79
2021/07/10 04:38:02;;;;;;;8.23;7.53;;;14.40;99.90;;;;;;5055930;28;20200;-79
2021/07/10 04:40:28;;;;;;;8.33;7.60;;;14.50;99.90;;;;;;5057557;28;20185;-79
2021/07/10 04:42:54;;;;;;;9.17;8.27;;;14.60;99.90;;;;;;5055125;28;20209;-80
2021/07/10 04:45:20;;;;;;;8.93;7.60;;;14.50;99.90;;;;;;5038275;28;20170;-79
2021/07/10 04:47:46;;;;;;;8.60;7.83;;;14.60;99.90;;;;;;5077028;28;20587;-80
2021/07/10 04:50:13;;;;;;;8.93;8.23;;;14.60;99.90;;;;;;5077622;28;20534;-80
2021/07/10 04:52:42;;;;;;;9.10;8.20;;;14.60;99.90;;;;;;5077360;28;20193;-80
2021/07/10 04:55:08;;;;;;;12.70;10.37;;;14.70;99.90;;;;;;5077223;28;20655;-80
2021/07/10 04:57:34;;;;;;;19.90;14.97;;;14.80;99.90;;;;;;5054664;28;20259;-80
2021/07/10 05:00:00;;;;;;;17.43;12.23;;;14.80;99.90;;;;;;5068183;28;21848;-80
2021/07/10 05:02:26;;;;;;;9.63;8.07;;;14.90;99.90;;;;;;5068477;28;20628;-80
2021/07/10 05:04:51;;;;;;;8.57;7.70;;;14.90;99.90;;;;;;5057684;28;20203;-81
2021/07/10 05:07:17;;;;;;;9.57;8.67;;;15.00;99.90;;;;;;5056446;28;20180;-79
2021/07/10 05:09:42;;;;;;;7.93;7.33;;;15.20;99.90;;;;;;5073843;28;20541;-81
2021/07/10 05:12:08;;;;;;;8.37;7.57;;;15.30;99.90;;;;;;5075206;28;20662;-80
2021/07/10 05:14:34;;;;;;;8.20;7.43;;;15.40;99.90;;;;;;5056389;28;20177;-79
2021/07/10 05:17:00;;;;;;;9.13;7.60;;;15.50;99.90;;;;;;5075456;28;20643;-80
2021/07/10 05:19:26;;;;;;;8.53;7.83;;;15.50;99.90;;;;;;5074222;28;20238;-79
2021/07/10 05:21:51;;;;;;;9.40;8.67;;;15.60;99.90;;;;;;5075741;28;20177;-79
2021/07/10 05:24:17;;;;;;;8.90;8.00;;;15.50;99.90;;;;;;5055465;28;20223;-80
2021/07/10 05:26:43;;;;;;;10.20;9.00;;;15.60;99.90;;;;;;5054070;28;20204;-81
2021/07/10 05:29:08;;;;;;;8.73;8.03;;;15.60;99.90;;;;;;5056519;28;20265;-80
2021/07/10 05:31:34;;;;;;;8.43;7.73;;;15.60;99.90;;;;;;5059579;28;20173;-81
2021/07/10 05:34:00;;;;;;;11.07;7.60;;;15.70;99.90;;;;;;5059222;28;20197;-82
2021/07/10 05:36:25;;;;;;;8.37;7.57;;;15.70;99.90;;;;;;5077375;28;20175;-81
2021/07/10 05:38:51;;;;;;;8.87;7.77;;;15.80;99.90;;;;;;5077247;28;20177;-81
2021/07/10 05:41:16;;;;;;;7.87;7.17;;;15.90;99.90;;;;;;5059192;28;20692;-81
2021/07/10 05:43:42;;;;;;;8.00;7.30;;;16.00;99.90;;;;;;5076538;28;20210;-80
2021/07/10 05:46:09;;;;;;;7.47;6.97;;;16.00;99.90;;;;;;5075914;28;20170;-81
2021/07/10 05:48:35;;;;;;;7.37;6.77;;;16.10;99.90;;;;;;5072046;28;20173;-81
2021/07/10 05:51:00;;;;;;;7.83;7.20;;;16.20;99.90;;;;;;5074945;28;20179;-81
2021/07/10 05:53:26;;;;;;;7.97;7.37;;;16.30;99.90;;;;;;5076468;28;20226;-80
2021/07/10 05:55:51;;;;;;;8.60;7.70;;;16.30;99.90;;;;;;5076549;28;20690;-80
2021/07/10 05:58:17;;;;;;;8.13;7.53;;;16.40;99.90;;;;;;5076993;28;20696;-81
2021/07/10 06:00:43;;;;;;;8.27;7.67;;;16.40;99.90;;;;;;5078281;28;20193;-81
2021/07/10 06:03:08;;;;;;;8.90;8.03;;;16.30;99.90;;;;;;5077918;28;20201;-81
2021/07/10 06:05:37;;;;;;;9.40;8.60;;;16.40;99.90;;;;;;5076559;28;20172;-81
2021/07/10 06:08:03;;;;;;;8.37;7.73;;;16.60;99.90;;;;;;5075655;28;20182;-80
2021/07/10 06:10:29;;;;;;;9.23;8.33;;;16.70;99.90;;;;;;5059265;28;20267;-81
2021/07/10 06:12:54;;;;;;;9.13;8.23;;;16.60;99.90;;;;;;5077241;28;20655;-81
2021/07/10 06:15:20;;;;;;;8.70;7.97;;;16.50;99.90;;;;;;5076041;28;20178;-80
2021/07/10 06:17:46;;;;;;;8.40;7.70;;;16.70;99.90;;;;;;5048885;28;20175;-80
2021/07/10 06:20:15;;;;;;;10.00;9.10;;;16.70;99.90;;;;;;5079249;28;20197;-81
2021/07/10 06:22:43;;;;;;;10.43;9.47;;;16.80;99.90;;;;;;5079350;28;20185;-81
2021/07/10 06:25:10;;;;;;;10.27;9.30;;;16.80;99.90;;;;;;5061334;28;20259;-81
2021/07/10 06:27:36;;;;;;;9.57;8.77;;;17.00;99.90;;;;;;5078695;28;20177;-80
2021/07/10 06:30:10;;;;;;;9.60;8.80;;;17.20;99.90;;;;;;5060836;28;20259;-80
2021/07/10 06:32:38;;;;;;;9.97;8.43;;;17.20;99.90;;;;;;5076374;28;20211;-80
2021/07/10 06:35:04;;;;;;;8.97;8.17;;;17.30;99.90;;;;;;5059061;28;20190;-81
2021/07/10 06:37:30;;;;;;;8.63;7.90;;;17.30;99.90;;;;;;5058568;28;20176;-80
2021/07/10 06:39:56;;;;;;;7.97;7.37;;;17.30;99.90;;;;;;5058792;28;20563;-80
2021/07/10 06:42:22;;;;;;;8.07;7.47;;;17.30;99.90;;;;;;5076135;28;20299;-80
2021/07/10 06:44:48;;;;;;;8.47;7.60;;;17.30;99.90;;;;;;5078203;28;20203;-79
2021/07/10 06:47:14;;;;;;;8.83;7.97;;;17.40;99.90;;;;;;5077068;28;20177;-78
2021/07/10 06:49:40;;;;;;;8.07;7.47;;;17.40;99.90;;;;;;5073774;28;20716;-80
2021/07/10 06:52:07;;;;;;;10.80;8.53;;;17.40;99.90;;;;;;5073640;28;20176;-80
2021/07/10 06:54:33;;;;;;;7.77;7.07;;;17.40;99.90;;;;;;5075001;28;20184;-80
2021/07/10 06:56:59;;;;;;;7.73;7.13;;;17.30;99.90;;;;;;5073673;28;20255;-80
2021/07/10 06:59:24;;;;;;;7.73;7.00;;;17.40;99.90;;;;;;5073105;28;20232;-79
2021/07/10 07:01:51;;;;;;;6.90;6.30;;;17.40;99.90;;;;;;5055656;28;20180;-79
2021/07/10 07:04:20;;;;;;;7.03;6.33;;;17.50;99.90;;;;;;5054898;28;20192;-80
2021/07/10 07:06:46;;;;;;;7.07;6.37;;;17.60;99.90;;;;;;5055331;28;20218;-79
2021/07/10 07:09:12;;;;;;;6.40;6.00;;;17.70;99.90;;;;;;5056807;28;20178;-80
2021/07/10 07:11:38;;;;;;;7.20;5.73;;;17.80;99.90;;;;;;5075919;28;20176;-81
2021/07/10 07:14:03;;;;;;;7.13;6.07;;;17.80;99.90;;;;;;5055893;28;20626;-80
2021/07/10 07:16:29;;;;;;;7.73;6.30;;;17.80;99.90;;;;;;5071042;28;20179;-79
2021/07/10 07:18:55;;;;;;;6.83;6.13;;;17.90;99.90;;;;;;5077429;28;20215;-79
2021/07/10 07:21:21;;;;;;;7.37;5.60;;;18.00;99.90;;;;;;5060750;28;20682;-79
2021/07/10 07:23:46;;;;;;;6.03;5.63;;;18.10;99.90;;;;;;5077484;28;20199;-80
2021/07/10 07:26:12;;;;;;;6.10;5.60;;;18.20;99.90;;;;;;5057378;28;20609;-80
2021/07/10 07:28:38;;;;;;;6.07;5.50;;;18.20;99.90;;;;;;5075934;28;20176;-81
2021/07/10 07:31:04;;;;;;;5.70;5.30;;;18.30;99.90;;;;;;5072777;28;20203;-81
2021/07/10 07:33:30;;;;;;;6.07;5.47;;;18.50;99.90;;;;;;5075865;28;20280;-81
2021/07/10 07:35:57;;;;;;;5.73;5.23;;;18.60;99.90;;;;;;5074721;28;20611;-81
2021/07/10 07:38:23;;;;;;;5.00;4.60;;;18.50;99.90;;;;;;5074973;28;20184;-82
2021/07/10 07:40:49;;;;;;;5.50;5.00;;;18.60;99.90;;;;;;5054593;28;20190;-81
2021/07/10 07:43:14;;;;;;;83.07;11.10;;;18.60;99.90;;;;;;5072076;28;20229;-82
2021/07/10 07:45:40;;;;;;;1345.83;132.67;;;18.70;99.90;;;;;;5075871;28;20256;-81
2021/07/10 07:48:06;;;;;;;7.70;5.90;;;18.90;99.90;;;;;;5057643;28;20185;-81
2021/07/10 07:50:32;;;;;;;1999.90;473.40;;;18.90;99.90;;;;;;5076732;28;20259;-81
2021/07/10 07:52:58;;;;;;;76.70;12.47;;;18.90;99.90;;;;;;5077356;28;20204;-81
2021/07/10 07:55:23;;;;;;;11.50;5.80;;;18.80;99.90;;;;;;5076603;28;20191;-82
2021/07/10 07:57:49;;;;;;;161.50;15.23;;;18.80;99.90;;;;;;5075943;28;20204;-82
2021/07/10 08:00:19;;;;;;;110.80;12.27;;;18.90;99.90;;;;;;5077072;28;20229;-82
2021/07/10 08:02:46;;;;;;;39.57;7.37;;;19.10;99.90;;;;;;5076732;28;20204;-82
2021/07/10 08:05:12;;;;;;;5.03;4.63;;;19.20;99.90;;;;;;5056680;28;20177;-81
2021/07/10 08:07:38;;;;;;;4.80;4.50;;;19.40;99.90;;;;;;5053621;28;20192;-80
2021/07/10 08:10:06;;;;;;;5.00;4.43;;;19.40;99.90;;;;;;5070274;28;20687;-82
2021/07/10 08:12:32;;;;;;;9.03;5.03;;;19.40;99.90;;;;;;5042361;28;20208;-82
2021/07/10 08:14:58;;;;;;;5.23;4.40;;;19.40;99.90;;;;;;5061084;28;20238;-82
2021/07/10 08:17:24;;;;;;;7.20;4.37;;;19.30;99.90;;;;;;5061532;28;20221;-82
2021/07/10 08:19:50;;;;;;;4.77;4.30;;;19.30;99.90;;;;;;5062614;28;20228;-82
2021/07/10 08:22:15;;;;;;;7.37;4.67;;;19.40;99.90;;;;;;5080194;28;20201;-82
2021/07/10 08:24:41;;;;;;;5.17;4.60;;;19.60;99.90;;;;;;5058488;28;20170;-82
2021/07/10 08:27:07;;;;;;;5.07;3.83;;;19.70;99.90;;;;;;5073338;28;20205;-81
2021/07/10 08:29:34;;;;;;;3.73;3.43;;;19.80;99.90;;;;;;5059100;28;20203;-80
2021/07/10 08:31:59;;;;;;;3.63;3.33;;;20.00;99.90;;;;;;5060340;28;20169;-82
2021/07/10 08:34:26;;;;;;;4.47;3.83;;;20.30;99.90;;;;;;5080593;28;20169;-81
2021/07/10 08:36:52;;;;;;;4.47;4.10;;;20.30;99.90;;;;;;5077902;28;20252;-79
2021/07/10 08:39:18;;;;;;;4.07;3.73;;;20.10;99.90;;;;;;5060611;28;20173;-80
2021/07/10 08:41:46;;;;;;;4.43;3.60;;;20.10;99.90;;;;;;5063126;28;20587;-81
2021/07/10 08:44:14;;;;;;;7.00;3.23;;;20.10;99.90;;;;;;5066663;28;20209;-81
2021/07/10 08:46:39;;;;;;;3.93;3.63;;;20.20;99.90;;;;;;5059119;28;20589;-82
2021/07/10 08:49:07;;;;;;;5.43;3.70;;;20.30;99.90;;;;;;5061549;28;20198;-81
2021/07/10 08:51:33;;;;;;;3.27;3.07;;;20.60;99.90;;;;;;5079689;28;20177;-81
2021/07/10 08:54:00;;;;;;;5.27;3.50;;;20.70;99.90;;;;;;5062775;28;20207;-81
2021/07/10 08:56:25;;;;;;;3.87;3.23;;;21.00;99.90;;;;;;5061724;28;20185;-82
2021/07/10 08:58:51;;;;;;;3.73;3.33;;;21.20;99.90;;;;;;5078119;28;20181;-80
2021/07/10 09:01:17;;;;;;;5.43;2.80;;;21.30;99.90;;;;;;5062056;28;20196;-81
2021/07/10 09:03:42;;;;;;;3.10;2.83;;;21.40;99.90;;;;;;5079611;28;20201;-81
2021/07/10 09:06:09;;;;;;;4.47;2.90;;;21.60;99.90;;;;;;5062047;28;20165;-80
2021/07/10 09:08:34;;;;;;;3.93;2.80;;;21.70;99.90;;;;;;5061931;28;20173;-80
2021/07/10 09:11:07;;;;;;;3.73;3.37;;;21.70;99.90;;;;;;5078785;28;20185;-80
2021/07/10 09:13:44;;;;;;;2.40;2.20;;;21.70;99.90;;;;;;5082712;28;20211;-79
2021/07/10 09:16:13;;;;;;;2.20;2.10;;;21.80;99.90;;;;;;5058026;28;20189;-79
2021/07/10 09:18:49;;;;;;;2.40;2.20;;;21.90;99.90;;;;;;5079301;28;20209;-79
2021/07/10 09:21:34;;;;;;;3.77;2.83;;;22.10;99.90;;;;;;5060685;28;20188;-79
2021/07/10 09:24:01;;;;;;;3.70;2.50;;;22.20;99.90;;;;;;5079526;28;20199;-79
2021/07/10 09:26:27;;;;;;;2.60;2.40;;;22.30;99.90;;;;;;5074082;28;20173;-79
2021/07/10 09:29:01;;;;;;;2.57;2.40;;;22.30;99.90;;;;;;5060793;28;20542;-79
2021/07/10 09:31:31;;;;;;;3.37;2.60;;;22.30;99.90;;;;;;5077554;28;20184;-80
2021/07/10 09:34:10;;;;;;;2.43;2.23;;;22.40;99.90;;;;;;5078381;28;20189;-80
2021/07/10 09:36:36;;;;;;;4.57;2.60;;;22.50;99.90;;;;;;5058642;28;20181;-81
2021/07/10 09:39:08;;;;;;;2.63;2.20;;;22.50;99.90;;;;;;5060348;28;20183;-80
2021/07/10 09:41:34;;;;;;;2.50;2.30;;;22.60;99.90;;;;;;5078873;28;20197;-80
2021/07/10 09:44:09;;;;;;;3.57;2.20;;;22.80;99.90;;;;;;5060979;28;20212;-80
2021/07/10 09:46:34;;;;;;;2.40;2.17;;;22.90;99.90;;;;;;5078468;28;20188;-79
2021/07/10 09:49:25;;;;;;;3.10;2.90;;;22.80;99.90;;;;;;5077263;28;20238;-78
2021/07/10 09:51:59;;;;;;;3.10;2.40;;;23.00;99.90;;;;;;5085227;28;20205;-79
2021/07/10 09:54:36;;;;;;;2.20;2.10;;;23.00;99.90;;;;;;5083617;28;20176;-81
2021/07/10 09:57:11;;;;;;;2.90;2.30;;;23.10;99.90;;;;;;5078097;28;20181;-81
2021/07/10 09:59:49;;;;;;;3.43;2.40;;;23.20;99.90;;;;;;5076553;28;20218;-80
2021/07/10 10:02:21;;;;;;;5.90;2.90;;;23.50;99.90;;;;;;5076995;28;20197;-79
2021/07/10 10:04:47;;;;;;;2.13;2.03;;;23.60;99.90;;;;;;5076526;28;20165;-79
2021/07/10 10:07:16;;;;;;;2.50;2.20;;;23.50;99.90;;;;;;5074101;28;20674;-80
2021/07/10 10:09:42;;;;;;;2.67;2.47;;;23.60;99.90;;;;;;5077081;28;20226;-80
2021/07/10 10:12:19;;;;;;;2.70;2.50;;;23.60;99.90;;;;;;5059172;28;20169;-80
2021/07/10 10:14:46;;;;;;;2.03;1.60;;;23.70;99.90;;;;;;5057416;28;20165;-79
2021/07/10 10:17:12;;;;;;;3.20;1.83;;;23.50;99.90;;;;;;5075453;28;20245;-80
2021/07/10 10:19:38;;;;;;;2.97;2.10;;;23.40;99.90;;;;;;5057486;28;20209;-79
2021/07/10 10:22:07;;;;;;;2.07;1.97;;;23.50;99.90;;;;;;5056921;28;20254;-80
2021/07/10 10:24:34;;;;;;;2.00;1.80;;;23.50;99.90;;;;;;5075424;28;20172;-80
2021/07/10 10:27:00;;;;;;;2.20;2.10;;;23.50;99.90;;;;;;5058726;28;20232;-79
2021/07/10 10:29:28;;;;;;;1.40;1.30;;;23.70;99.90;;;;;;5076431;28;20177;-80
2021/07/10 10:31:54;;;;;;;1.50;1.40;;;23.80;99.90;;;;;;5076466;28;20177;-80
2021/07/10 10:34:20;;;;;;;1.60;1.30;;;23.90;99.90;;;;;;5059234;28;20177;-80
2021/07/10 10:36:48;;;;;;;2.10;1.70;;;23.90;99.90;;;;;;5075784;28;20252;-80
2021/07/10 10:39:17;;;;;;;3.17;1.60;;;23.90;99.90;;;;;;5077974;28;20227;-80
2021/07/10 10:41:47;;;;;;;1.20;1.10;;;24.00;99.90;;;;;;5072886;28;20208;-79
2021/07/10 10:44:13;;;;;;;2.13;1.70;;;24.30;99.90;;;;;;5055726;28;20307;-79
2021/07/10 10:46:45;;;;;;;1.60;1.50;;;;;;;;;;5072911;28;20201;-81
2021/07/10 10:49:32;;;;;;;2.00;1.40;;;24.20;99.90;;;;;;5045880;28;20173;-79
2021/07/10 10:52:29;;;;;;;1.93;1.53;;;24.20;99.90;;;;;;5073572;28;20189;-80
2021/07/10 10:55:01;;;;;;;1.53;1.43;;;24.00;99.90;;;;;;5075864;28;20177;-81
2021/07/10 10:57:39;;;;;;;1.77;1.43;;;24.20;99.90;;;;;;5077413;28;20177;-81
2021/07/10 11:00:16;;;;;;;1.90;1.80;;;24.50;99.90;;;;;;5077635;28;20203;-80
2021/07/10 11:03:04;;;;;;;1.60;1.50;;;24.90;99.90;;;;;;5077466;28;20347;-79
2021/07/10 11:05:32;;;;;;;2.23;2.00;;;25.20;99.90;;;;;;5075637;28;20169;-80
2021/07/10 11:08:36;;;;;;;1.80;1.70;;;24.70;99.90;;;;;;5077167;28;20192;-80
2021/07/10 11:11:02;;;;;;;1.93;1.83;;;24.60;99.90;;;;;;5077339;28;20177;-81
2021/07/10 11:13:35;;;;;;;2.17;1.70;;;24.50;99.90;;;;;;5076726;28;20201;-80
2021/07/10 11:37:39;;;;;;;1.57;1.47;;;25.00;99.90;;;;;;5089472;28;20303;-76
2021/07/10 11:40:09;;;;;;;1.60;1.37;;;24.80;99.90;;;;;;5072404;28;20199;-78
2021/07/10 11:42:42;;;;;;;1.83;1.63;;;25.20;99.90;;;;;;5073223;28;20177;-76
2021/07/10 11:45:18;;;;;;;3.67;1.53;;;25.00;99.90;;;;;;5075044;28;20197;-78
2021/07/10 11:47:51;;;;;;;2.03;1.83;;;25.00;99.90;;;;;;5078733;28;20173;-80
2021/07/10 11:50:21;;;;;;;1.30;1.20;;;25.10;99.90;;;;;;5084516;28;20173;-79
2021/07/10 11:53:13;;;;;;;1.33;1.23;;;25.10;99.90;;;;;;5081040;28;20168;-77
2021/07/10 11:55:46;;;;;;;1.60;1.50;;;25.10;99.90;;;;;;5072369;28;20228;-79
2021/07/10 11:58:17;;;;;;;1.83;1.10;;;25.50;99.90;;;;;;5075999;28;20185;-79
2021/07/10 12:00:44;;;;;;;1.60;1.37;;;25.70;99.90;;;;;;5075378;28;20213;-78
2021/07/10 12:03:19;;;;;;;1.43;1.33;;;25.80;99.90;;;;;;5075089;28;20558;-79
2021/07/10 12:05:46;;;;;;;1.93;1.20;;;25.70;99.90;;;;;;5072350;28;20586;-77
2021/07/10 12:08:12;;;;;;;1.23;1.00;;;25.70;99.90;;;;;;5076103;28;20231;-77
2021/07/10 12:10:41;;;;;;;1.93;1.13;;;25.60;99.90;;;;;;5075960;28;20661;-76
2021/07/10 12:13:14;;;;;;;1.03;1.03;;;25.50;99.90;;;;;;5104975;22;20648;-78
2021/07/10 12:15:57;;;;;;;1.27;0.90;;;26.20;99.90;;;;;;5081293;28;20177;-78
2021/07/10 12:18:25;;;;;;;0.90;0.90;;;26.00;99.90;;;;;;5090274;28;20682;-79
2021/07/10 12:20:50;;;;;;;2.93;1.00;;;26.20;99.90;;;;;;5064374;28;20230;-79
2021/07/10 12:23:28;;;;;;;2.60;1.10;;;26.20;99.90;;;;;;5074985;28;20225;-78
2021/07/10 12:26:06;;;;;;;0.93;0.80;;;26.40;99.90;;;;;;5057173;28;20183;-77
2021/07/10 12:28:37;;;;;;;1.20;1.10;;;26.50;99.90;;;;;;5073874;28;20185;-79
2021/07/10 12:31:27;;;;;;;0.97;0.97;;;26.40;99.90;;;;;;5076051;28;20184;-78
2021/07/10 12:33:54;;;;;;;1.20;1.03;;;26.60;99.90;;;;;;5056373;28;20360;-78
2021/07/10 12:36:23;;;;;;;0.90;0.90;;;26.40;99.90;;;;;;5076604;28;20200;-79
2021/07/10 12:38:52;;;;;;;1.43;1.23;;;26.40;99.90;;;;;;5055963;28;20183;-79
2021/07/10 12:41:24;;;;;;;1.53;1.30;;;26.20;99.90;;;;;;5074005;28;20676;-78
2021/07/10 12:43:51;;;;;;;1.40;1.30;;;25.90;99.90;;;;;;5056322;28;20547;-79
2021/07/10 12:46:18;;;;;;;1.37;1.17;;;26.00;99.90;;;;;;5056936;28;20823;-78
2021/07/10 12:48:44;;;;;;;1.10;1.03;;;25.90;99.90;;;;;;5074485;28;20306;-79
2021/07/10 12:51:10;;;;;;;1.40;1.00;;;26.20;99.90;;;;;;5056263;28;20719;-79
2021/07/10 12:53:38;;;;;;;1.33;1.07;;;26.60;99.90;;;;;;5073852;28;20193;-78
2021/07/10 12:56:25;;;;;;;1.23;1.00;;;26.60;99.90;;;;;;5073773;28;20227;-77
2021/07/10 12:58:52;;;;;;;1.33;0.93;;;26.50;99.90;;;;;;5071712;28;20184;-77
2021/07/10 13:01:23;;;;;;;1.13;1.00;;;26.50;99.90;;;;;;5073298;28;20224;-77
2021/07/10 13:03:54;;;;;;;0.90;0.90;;;26.40;99.90;;;;;;5054469;28;20215;-78
2021/07/10 13:06:20;;;;;;;5.77;1.30;;;26.70;99.90;;;;;;5073979;28;20180;-77
2021/07/10 13:08:54;;;;;;;1.80;1.00;;;26.60;99.90;;;;;;5073346;28;20184;-77
2021/07/10 13:11:21;;;;;;;2.57;1.20;;;26.60;99.90;;;;;;5073441;28;20183;-78